Time;durP1;ratioP1;P1;durP2;ratioP2;P2;SDS_P1;SDS_P2;PMS_P1;PMS_P2;Temp;Humidity;BMP_temperature;BMP_pressure;BME280_temperature;BME280_humidity;BME280_pressure;Samples;Min_cycle;Max_cycle;Signal;HPM_P1;HPM_P2
2023/11/24 00:00:51;;;;;;;7.85;4.90;;;;;;;;;;10249552;28;20447;-69
2023/11/24 00:05:52;;;;;;;11.18;5.50;;;;;;;;;;10248130;28;20041;-69
2023/11/24 00:10:53;;;;;;;10.43;5.40;;;;;;;;;;10248672;29;20030;-66
2023/11/24 00:15:53;;;;;;;9.18;5.38;;;;;;;;;;10247791;28;20031;-63
2023/11/24 00:20:55;;;;;;;11.52;5.20;;;;;;;;;;10248081;29;20031;-62
2023/11/24 00:25:56;;;;;;;8.77;4.93;;;;;;;;;;10248068;28;20475;-67
2023/11/24 00:30:57;;;;;;;7.53;5.15;;;;;;;;;;10243218;28;20027;-66
2023/11/24 00:35:58;;;;;;;7.22;5.07;;;;;;;;;;10247016;28;20031;-65
2023/11/24 00:41:00;;;;;;;8.32;4.72;;;;;;;;;;10244242;28;20031;-66
2023/11/24 00:46:00;;;;;;;10.35;5.07;;;;;;;;;;10246882;28;20063;-66
2023/11/24 00:51:01;;;;;;;7.00;4.50;;;;;;;;;;10241329;28;20035;-66
2023/11/24 00:56:02;;;;;;;7.88;4.88;;;;;;;;;;10240133;28;20043;-67
2023/11/24 01:01:04;;;;;;;6.82;4.75;;;;;;;;;;10241337;28;20046;-66
2023/11/24 01:06:05;;;;;;;8.40;5.53;;;;;;;;;;10243510;28;20039;-70
2023/11/24 01:11:05;;;;;;;16.13;4.80;;;;;;;;;;10240918;28;20027;-69
2023/11/24 01:16:06;;;;;;;14.38;5.07;;;;;;;;;;10245494;28;20105;-69
2023/11/24 01:21:07;;;;;;;8.93;4.88;;;;;;;;;;10233535;28;20031;-66
2023/11/24 01:26:11;;;;;;;9.52;5.07;;;;;;;;;;10246276;28;20159;-65
2023/11/24 01:31:12;;;;;;;11.25;4.90;;;;;;;;;;10239013;28;20027;-65
2023/11/24 01:36:12;;;;;;;6.85;5.07;;;;;;;;;;10244286;29;20396;-66
2023/11/24 01:41:13;;;;;;;7.43;5.25;;;;;;;;;;10245832;28;20435;-64
2023/11/24 01:46:14;;;;;;;6.05;4.57;;;;;;;;;;10232290;29;20032;-64
2023/11/24 01:51:15;;;;;;;6.65;4.85;;;;;;;;;;10243070;28;20047;-65
2023/11/24 01:56:16;;;;;;;6.10;4.35;;;;;;;;;;10237537;28;20039;-65
2023/11/24 02:01:16;;;;;;;9.15;5.07;;;;;;;;;;10243923;28;20047;-65
2023/11/24 02:06:18;;;;;;;7.38;4.82;;;;;;;;;;10244932;28;20041;-64
2023/11/24 02:11:18;;;;;;;9.25;4.80;;;;;;;;;;10244146;28;20089;-64
2023/11/24 02:16:19;;;;;;;7.20;4.22;;;;;;;;;;10244035;28;20034;-64
2023/11/24 02:21:21;;;;;;;6.32;4.68;;;;;;;;;;10242539;29;20038;-66
2023/11/24 02:26:22;;;;;;;7.25;4.72;;;;;;;;;;10244323;28;20030;-66
2023/11/24 02:31:23;;;;;;;6.32;4.40;;;;;;;;;;10242543;28;20030;-66
2023/11/24 02:36:27;;;;;;;7.93;4.68;;;;;;;;;;10241730;28;20126;-66
2023/11/24 02:41:28;;;;;;;7.70;4.85;;;;;;;;;;10244099;28;20039;-66
2023/11/24 02:46:28;;;;;;;7.60;4.45;;;;;;;;;;10244323;28;20098;-66
2023/11/24 02:51:29;;;;;;;4.97;4.15;;;;;;;;;;10242983;28;20043;-64
2023/11/24 02:56:29;;;;;;;6.78;4.57;;;;;;;;;;10244040;29;20031;-64
2023/11/24 03:01:30;;;;;;;8.25;4.40;;;;;;;;;;10234785;28;20300;-70
2023/11/24 03:06:31;;;;;;;6.28;4.55;;;;;;;;;;10243593;28;20034;-70
2023/11/24 03:11:31;;;;;;;7.03;4.78;;;;;;;;;;10243432;28;20058;-68
2023/11/24 03:16:32;;;;;;;7.18;4.72;;;;;;;;;;10255810;28;20027;-69
2023/11/24 03:21:33;;;;;;;6.15;3.97;;;;;;;;;;10242820;28;20081;-69
2023/11/24 03:26:33;;;;;;;5.88;4.65;;;;;;;;;;10241375;28;20023;-69
2023/11/24 03:31:34;;;;;;;8.07;4.43;;;;;;;;;;10244466;28;20023;-68
2023/11/24 03:36:35;;;;;;;8.20;4.25;;;;;;;;;;10241383;28;20038;-64
2023/11/24 03:41:35;;;;;;;5.65;4.10;;;;;;;;;;10247299;29;20040;-65
2023/11/24 03:46:36;;;;;;;7.63;4.47;;;;;;;;;;10248624;28;20035;-65
2023/11/24 03:51:36;;;;;;;6.97;4.70;;;;;;;;;;10237128;29;20054;-66
2023/11/24 03:56:37;;;;;;;5.43;4.55;;;;;;;;;;10247271;29;20183;-63
2023/11/24 04:01:38;;;;;;;5.38;4.18;;;;;;;;;;10248491;28;20031;-65
2023/11/24 04:06:38;;;;;;;4.55;4.03;;;;;;;;;;10247837;28;20391;-65
2023/11/24 04:11:39;;;;;;;6.90;4.40;;;;;;;;;;10246729;29;20019;-66
2023/11/24 04:16:40;;;;;;;4.93;4.05;;;;;;;;;;10241915;29;20030;-66
2023/11/24 04:21:40;;;;;;;5.88;4.05;;;;;;;;;;10237189;28;20031;-66
2023/11/24 04:26:41;;;;;;;6.15;4.53;;;;;;;;;;10247748;28;20027;-66
2023/11/24 04:31:41;;;;;;;5.95;4.30;;;;;;;;;;10247896;28;20090;-64
2023/11/24 04:36:42;;;;;;;6.82;4.10;;;;;;;;;;10246054;28;20031;-66
2023/11/24 04:41:43;;;;;;;5.60;4.75;;;;;;;;;;10246850;28;20079;-66
2023/11/24 04:46:43;;;;;;;6.57;4.43;;;;;;;;;;10247084;28;20035;-65
2023/11/24 04:51:44;;;;;;;5.93;4.15;;;;;;;;;;10247000;29;20573;-67
2023/11/24 04:56:44;;;;;;;6.40;4.15;;;;;;;;;;10246872;28;20460;-65
2023/11/24 05:01:46;;;;;;;5.38;4.03;;;;;;;;;;10246770;28;20483;-66
2023/11/24 05:06:46;;;;;;;6.05;4.28;;;;;;;;;;10246370;28;20542;-67
2023/11/24 05:11:47;;;;;;;5.43;4.22;;;;;;;;;;10246174;29;20031;-66
2023/11/24 05:16:47;;;;;;;7.03;4.18;;;;;;;;;;10245873;29;20035;-67
2023/11/24 05:21:48;;;;;;;5.82;4.22;;;;;;;;;;10246201;28;20031;-67
2023/11/24 05:26:48;;;;;;;5.47;3.90;;;;;;;;;;10236384;29;20042;-68
2023/11/24 05:31:50;;;;;;;7.25;4.53;;;;;;;;;;10242593;29;20035;-67
2023/11/24 05:36:51;;;;;;;4.45;4.00;;;;;;;;;;10241228;28;20023;-67
2023/11/24 05:41:52;;;;;;;5.18;4.32;;;;;;;;;;10243936;28;20038;-67
2023/11/24 05:46:52;;;;;;;8.10;4.22;;;;;;;;;;10234061;28;20027;-65
2023/11/24 05:51:53;;;;;;;5.45;4.18;;;;;;;;;;10243496;29;20504;-65
2023/11/24 05:56:53;;;;;;;4.55;3.80;;;;;;;;;;10244747;28;20439;-64
2023/11/24 06:01:54;;;;;;;4.38;3.83;;;;;;;;;;10247343;28;20384;-65
2023/11/24 06:06:55;;;;;;;5.43;3.90;;;;;;;;;;10245350;28;20575;-64
2023/11/24 06:11:55;;;;;;;7.60;3.75;;;;;;;;;;10244250;29;20235;-66
2023/11/24 06:16:56;;;;;;;5.55;4.00;;;;;;;;;;10243484;29;20034;-68
2023/11/24 06:21:58;;;;;;;4.60;4.03;;;;;;;;;;10239445;29;20043;-70
2023/11/24 06:26:59;;;;;;;5.70;4.28;;;;;;;;;;10232925;28;20407;-69
2023/11/24 06:32:00;;;;;;;20.63;6.35;;;;;;;;;;10243248;28;20094;-64
2023/11/24 06:37:00;;;;;;;8.80;5.93;;;;;;;;;;10246269;28;20127;-64
2023/11/24 06:42:04;;;;;;;10.40;6.55;;;;;;;;;;10254767;28;20035;-65
2023/11/24 06:47:05;;;;;;;10.25;6.72;;;;;;;;;;10235583;28;20391;-66
2023/11/24 06:52:06;;;;;;;10.02;7.10;;;;;;;;;;10249324;28;20319;-64
2023/11/24 06:57:07;;;;;;;10.32;6.65;;;;;;;;;;10241809;28;20031;-64
2023/11/24 07:02:07;;;;;;;11.88;7.45;;;;;;;;;;10245897;28;20027;-64
2023/11/24 07:07:08;;;;;;;27.92;7.88;;;;;;;;;;10246702;28;20042;-63
2023/11/24 07:12:17;;;;;;;24.23;8.45;;;;;;;;;;10241976;28;20069;-63
2023/11/24 07:17:18;;;;;;;16.80;7.45;;;;;;;;;;10245309;29;20039;-63
2023/11/24 07:22:20;;;;;;;20.88;8.13;;;;;;;;;;10248203;28;20411;-63
2023/11/24 07:27:20;;;;;;;12.75;8.25;;;;;;;;;;10243536;29;20046;-63
2023/11/24 07:32:24;;;;;;;15.52;7.97;;;;;;;;;;10249030;29;20034;-64
2023/11/24 07:37:26;;;;;;;15.10;8.05;;;;;;;;;;10244314;28;20115;-67
2023/11/24 07:42:27;;;;;;;16.88;7.40;;;;;;;;;;10242159;28;20114;-63
2023/11/24 07:47:27;;;;;;;17.08;7.78;;;;;;;;;;10248628;28;20062;-69
2023/11/24 07:52:28;;;;;;;11.63;7.47;;;;;;;;;;10243768;28;20419;-63
2023/11/24 07:57:29;;;;;;;12.02;7.97;;;;;;;;;;10250650;28;20039;-63
2023/11/24 08:02:29;;;;;;;12.63;7.15;;;;;;;;;;10245009;28;20403;-68
2023/11/24 08:07:30;;;;;;;16.70;7.57;;;;;;;;;;10246294;28;20423;-63
2023/11/24 08:12:30;;;;;;;15.25;8.15;;;;;;;;;;10240100;29;20467;-63
2023/11/24 08:17:31;;;;;;;13.82;7.63;;;;;;;;;;10249415;28;20023;-63
2023/11/24 08:22:32;;;;;;;14.52;9.18;;;;;;;;;;10241118;28;20206;-63
2023/11/24 08:27:32;;;;;;;12.07;7.43;;;;;;;;;;10248495;28;20030;-63
2023/11/24 08:32:33;;;;;;;12.18;8.00;;;;;;;;;;10244341;28;20023;-63
2023/11/24 08:37:34;;;;;;;11.82;8.18;;;;;;;;;;10247966;28;20054;-63
2023/11/24 08:42:34;;;;;;;16.58;8.43;;;;;;;;;;10242170;29;20019;-63
2023/11/24 08:47:35;;;;;;;17.00;8.38;;;;;;;;;;10246201;28;20061;-62
2023/11/24 08:52:36;;;;;;;13.02;7.38;;;;;;;;;;10249505;28;20050;-63
2023/11/24 08:57:37;;;;;;;19.13;7.70;;;;;;;;;;10254333;28;20045;-63
2023/11/24 09:02:37;;;;;;;10.85;7.43;;;;;;;;;;10243490;29;20023;-63
2023/11/24 09:07:38;;;;;;;13.80;7.88;;;;;;;;;;10246903;29;20027;-64
2023/11/24 09:12:39;;;;;;;11.40;7.38;;;;;;;;;;10244953;29;20411;-63
2023/11/24 09:17:39;;;;;;;13.27;7.50;;;;;;;;;;10246384;29;20030;-63
2023/11/24 09:22:40;;;;;;;11.75;7.35;;;;;;;;;;10243325;28;20098;-66
2023/11/24 09:27:41;;;;;;;9.80;7.97;;;;;;;;;;10244472;28;20027;-68
2023/11/24 09:32:43;;;;;;;9.27;6.78;;;;;;;;;;10239180;28;20082;-66
2023/11/24 09:37:43;;;;;;;12.90;7.63;;;;;;;;;;10242871;28;20038;-68
2023/11/24 09:42:45;;;;;;;12.55;6.75;;;;;;;;;;10246325;28;20043;-65
2023/11/24 09:47:51;;;;;;;12.20;7.00;;;;;;;;;;10244963;28;20117;-67
2023/11/24 09:52:54;;;;;;;11.52;7.13;;;;;;;;;;10244052;28;20059;-66
2023/11/24 09:57:56;;;;;;;10.30;6.65;;;;;;;;;;10241595;28;20038;-64
2023/11/24 10:02:59;;;;;;;13.10;7.50;;;;;;;;;;10248893;28;20031;-67
2023/11/24 10:08:00;;;;;;;8.82;6.70;;;;;;;;;;10254640;28;20023;-68
2023/11/24 10:13:01;;;;;;;6.63;5.82;;;;;;;;;;10242468;28;20130;-64
2023/11/24 10:18:03;;;;;;;8.45;6.38;;;;;;;;;;10246781;28;20028;-67
2023/11/24 10:23:03;;;;;;;11.00;6.43;;;;;;;;;;10248113;28;20114;-67
2023/11/24 10:28:08;;;;;;;9.15;6.47;;;;;;;;;;10249681;28;20031;-67
2023/11/24 10:33:08;;;;;;;11.65;6.43;;;;;;;;;;10243239;28;20090;-63
2023/11/24 10:38:10;;;;;;;10.75;6.55;;;;;;;;;;10252675;28;20038;-62
2023/11/24 10:43:12;;;;;;;9.55;6.72;;;;;;;;;;10253029;28;20026;-63
2023/11/24 10:48:12;;;;;;;10.02;5.95;;;;;;;;;;10239472;28;20455;-62
2023/11/24 10:53:35;;;;;;;7.20;5.88;;;;;;;;;;10255295;28;20083;-65
2023/11/24 10:58:36;;;;;;;11.73;7.10;;;;;;;;;;10248081;28;20066;-63
2023/11/24 11:03:38;;;;;;;8.00;5.30;;;;;;;;;;10256288;28;20023;-63
2023/11/24 11:08:56;;;;;;;19.23;7.40;;;;;;;;;;10249468;28;20039;-63
2023/11/24 11:13:58;;;;;;;11.82;6.30;;;;;;;;;;10239056;28;20101;-66
2023/11/24 11:19:29;;;;;;;13.63;6.30;;;;;;;;;;10254214;28;20491;-65
2023/11/24 11:24:29;;;;;;;9.38;6.57;;;;;;;;;;10255181;28;20035;-62
2023/11/24 11:29:31;;;;;;;12.80;6.53;;;;;;;;;;10253763;28;20031;-63
2023/11/24 11:34:32;;;;;;;10.85;6.97;;;;;;;;;;10258185;28;20395;-66
2023/11/24 11:40:00;;;;;;;9.70;6.93;;;;;;;;;;10253568;28;20034;-67
2023/11/24 11:45:09;;;;;;;12.48;6.78;;;;;;;;;;10260737;28;20508;-64
2023/11/24 11:50:21;;;;;;;13.18;7.75;;;;;;;;;;10257310;28;20442;-63
2023/11/24 11:55:21;;;;;;;13.93;7.63;;;;;;;;;;10251547;28;20055;-66
2023/11/24 12:00:29;;;;;;;14.55;7.65;;;;;;;;;;10270308;28;20043;-66
2023/11/24 12:05:32;;;;;;;16.50;7.93;;;;;;;;;;10251700;28;20490;-66
2023/11/24 12:10:32;;;;;;;18.98;8.10;;;;;;;;;;10266481;28;20042;-65
2023/11/24 12:15:34;;;;;;;13.52;7.10;;;;;;;;;;10258757;28;20478;-66
2023/11/24 12:20:36;;;;;;;20.33;8.15;;;;;;;;;;10249660;28;20058;-67
2023/11/24 12:25:38;;;;;;;14.15;6.93;;;;;;;;;;10263537;28;20033;-63
2023/11/24 12:30:41;;;;;;;13.75;7.07;;;;;;;;;;10258853;28;20037;-65
2023/11/24 12:35:48;;;;;;;12.43;7.07;;;;;;;;;;10266756;28;20138;-62
2023/11/24 12:40:51;;;;;;;16.77;7.35;;;;;;;;;;10253266;28;20051;-63
2023/11/24 12:45:51;;;;;;;17.85;7.65;;;;;;;;;;10246279;28;20467;-65
2023/11/24 12:50:58;;;;;;;13.55;6.93;;;;;;;;;;10244147;28;20054;-62
2023/11/24 12:55:59;;;;;;;12.10;7.03;;;;;;;;;;10249790;28;20122;-63
2023/11/24 13:01:00;;;;;;;14.02;6.97;;;;;;;;;;10234996;28;20019;-63
2023/11/24 13:06:00;;;;;;;17.02;6.72;;;;;;;;;;10245790;28;20126;-63
2023/11/24 13:11:01;;;;;;;12.02;6.93;;;;;;;;;;10244021;28;20020;-63
2023/11/24 13:16:07;;;;;;;14.95;7.63;;;;;;;;;;10240350;28;20095;-63
2023/11/24 13:21:09;;;;;;;13.10;6.72;;;;;;;;;;10243221;28;20102;-63
2023/11/24 13:26:10;;;;;;;16.27;7.30;;;;;;;;;;10250509;28;20039;-63
2023/11/24 13:31:10;;;;;;;13.52;6.95;;;;;;;;;;10243109;29;20023;-63
2023/11/24 13:36:11;;;;;;;11.05;7.03;;;;;;;;;;10251140;28;20089;-63
2023/11/24 13:41:12;;;;;;;17.73;7.10;;;;;;;;;;10241386;28;20034;-63
2023/11/24 13:46:13;;;;;;;13.95;7.55;;;;;;;;;;10252366;28;20388;-63
2023/11/24 13:51:14;;;;;;;11.82;7.05;;;;;;;;;;10248475;28;20039;-63
2023/11/24 13:56:14;;;;;;;14.50;6.72;;;;;;;;;;10243155;29;20039;-63
2023/11/24 14:01:16;;;;;;;12.73;6.38;;;;;;;;;;10242552;28;20031;-63
2023/11/24 14:06:18;;;;;;;8.55;6.28;;;;;;;;;;10243972;28;20486;-63
2023/11/24 14:11:19;;;;;;;9.57;6.85;;;;;;;;;;10237970;28;20383;-63
2023/11/24 14:16:21;;;;;;;12.65;5.78;;;;;;;;;;10243193;28;20031;-63
2023/11/24 14:21:22;;;;;;;13.10;6.55;;;;;;;;;;10243940;28;20063;-62
2023/11/24 14:26:23;;;;;;;10.65;6.30;;;;;;;;;;10254318;28;20093;-64
2023/11/24 14:31:24;;;;;;;9.88;6.07;;;;;;;;;;10238773;28;20035;-63
2023/11/24 14:36:28;;;;;;;11.07;6.20;;;;;;;;;;10244836;28;20039;-65
2023/11/24 14:41:32;;;;;;;17.48;6.90;;;;;;;;;;10245399;28;20062;-62
2023/11/24 14:46:33;;;;;;;22.20;7.97;;;;;;;;;;10241542;28;20114;-64
2023/11/24 14:51:37;;;;;;;22.02;8.65;;;;;;;;;;10239107;28;20492;-64
2023/11/24 14:56:40;;;;;;;25.77;8.25;;;;;;;;;;10240202;29;20058;-65
2023/11/24 15:01:42;;;;;;;19.70;8.60;;;;;;;;;;10238920;28;20111;-65
2023/11/24 15:06:44;;;;;;;18.08;8.00;;;;;;;;;;10241406;28;20043;-65
2023/11/24 15:11:45;;;;;;;26.50;7.47;;;;;;;;;;10252786;28;20322;-64
2023/11/24 15:17:00;;;;;;;13.90;6.88;;;;;;;;;;10243870;28;20325;-65
2023/11/24 15:22:15;;;;;;;10.77;6.53;;;;;;;;;;10248363;28;20031;-65
2023/11/24 15:27:16;;;;;;;14.13;6.90;;;;;;;;;;10237635;29;20027;-64
2023/11/24 15:32:20;;;;;;;17.83;6.20;;;;;;;;;;10250138;28;20078;-63
2023/11/24 15:37:22;;;;;;;18.20;7.47;;;;;;;;;;10255742;28;20030;-63
2023/11/24 15:42:25;;;;;;;14.30;6.43;;;;;;;;;;10252988;28;20546;-62
2023/11/24 15:47:27;;;;;;;16.65;7.13;;;;;;;;;;10259183;28;20195;-63
2023/11/24 15:52:27;;;;;;;22.58;7.45;;;;;;;;;;10253620;28;20261;-63
2023/11/24 15:57:28;;;;;;;21.52;7.53;;;;;;;;;;10255286;28;20043;-64
2023/11/24 16:02:31;;;;;;;15.15;6.43;;;;;;;;;;10249985;28;20031;-63
2023/11/24 16:07:34;;;;;;;11.98;6.10;;;;;;;;;;10253337;28;20019;-63
2023/11/24 16:12:35;;;;;;;19.00;6.60;;;;;;;;;;10260076;28;20030;-63
2023/11/24 16:17:35;;;;;;;13.35;6.30;;;;;;;;;;10254034;28;20023;-63
2023/11/24 16:22:36;;;;;;;17.85;5.93;;;;;;;;;;10266508;28;20403;-63
2023/11/24 16:27:37;;;;;;;24.95;6.13;;;;;;;;;;10250561;28;20380;-63
2023/11/24 16:32:40;;;;;;;13.93;5.80;;;;;;;;;;10256114;28;20023;-63
2023/11/24 16:37:41;;;;;;;13.95;5.65;;;;;;;;;;10256786;28;20050;-63
2023/11/24 16:42:42;;;;;;;11.63;5.40;;;;;;;;;;10247104;28;20102;-63
2023/11/24 16:47:42;;;;;;;11.60;5.50;;;;;;;;;;10253224;28;20039;-63
2023/11/24 16:52:43;;;;;;;13.43;5.53;;;;;;;;;;10247056;28;20043;-63
2023/11/24 16:57:44;;;;;;;8.10;5.82;;;;;;;;;;10243769;28;20047;-63
2023/11/24 17:02:49;;;;;;;8.73;5.10;;;;;;;;;;10243106;29;20058;-63
2023/11/24 17:07:49;;;;;;;11.20;5.70;;;;;;;;;;10245882;28;20033;-63
2023/11/24 17:12:51;;;;;;;12.48;5.55;;;;;;;;;;10246021;28;20043;-63
2023/11/24 17:17:53;;;;;;;12.65;4.68;;;;;;;;;;10246941;29;20347;-63
2023/11/24 17:22:53;;;;;;;11.80;5.40;;;;;;;;;;10245788;28;20043;-63
2023/11/24 17:27:54;;;;;;;9.18;4.88;;;;;;;;;;10244555;29;20498;-63
2023/11/24 17:32:55;;;;;;;8.80;4.88;;;;;;;;;;10242028;28;20086;-63
2023/11/24 17:37:55;;;;;;;9.15;5.32;;;;;;;;;;10244566;29;20023;-63
2023/11/24 17:42:56;;;;;;;10.75;6.30;;;;;;;;;;10245256;28;20031;-64
2023/11/24 17:47:56;;;;;;;11.10;5.80;;;;;;;;;;10245712;28;20031;-63
2023/11/24 17:52:57;;;;;;;16.05;6.75;;;;;;;;;;10244643;28;20499;-64
2023/11/24 17:57:58;;;;;;;12.48;6.90;;;;;;;;;;10244014;28;20391;-63
2023/11/24 18:02:58;;;;;;;40.20;7.38;;;;;;;;;;10242858;29;20391;-63
2023/11/24 18:08:02;;;;;;;15.63;6.90;;;;;;;;;;10239035;28;20027;-63
2023/11/24 18:13:04;;;;;;;12.77;6.90;;;;;;;;;;10240564;29;20163;-63
2023/11/24 18:18:05;;;;;;;10.70;7.18;;;;;;;;;;10241613;29;20110;-63
2023/11/24 18:23:06;;;;;;;13.88;6.47;;;;;;;;;;10243712;29;20019;-63
2023/11/24 18:28:11;;;;;;;15.90;6.53;;;;;;;;;;10244414;28;20024;-63
2023/11/24 18:33:12;;;;;;;9.70;6.75;;;;;;;;;;10242585;29;20039;-63
2023/11/24 18:38:12;;;;;;;15.30;7.30;;;;;;;;;;10243656;29;20039;-64
2023/11/24 18:43:13;;;;;;;19.30;6.25;;;;;;;;;;10241617;28;20091;-64
2023/11/24 18:48:14;;;;;;;10.45;5.82;;;;;;;;;;10241143;28;20065;-64
2023/11/24 18:53:15;;;;;;;16.90;6.57;;;;;;;;;;10241841;28;20139;-64
2023/11/24 18:58:15;;;;;;;13.05;6.50;;;;;;;;;;10266011;28;20026;-64
2023/11/24 19:03:16;;;;;;;16.85;7.10;;;;;;;;;;10249478;28;20027;-64
2023/11/24 19:08:17;;;;;;;8.45;6.32;;;;;;;;;;10250589;28;20023;-64
2023/11/24 19:13:18;;;;;;;13.63;6.70;;;;;;;;;;10248478;28;20027;-64
2023/11/24 19:18:19;;;;;;;11.48;6.35;;;;;;;;;;10246252;29;20031;-64
2023/11/24 19:23:22;;;;;;;11.70;6.15;;;;;;;;;;10248909;28;20243;-64
2023/11/24 19:28:24;;;;;;;11.07;6.82;;;;;;;;;;10252355;28;20023;-64
2023/11/24 19:33:24;;;;;;;11.80;6.88;;;;;;;;;;10248055;29;20450;-64
2023/11/24 19:38:25;;;;;;;10.90;7.47;;;;;;;;;;10248211;28;20059;-63
2023/11/24 19:43:25;;;;;;;10.50;7.00;;;;;;;;;;10247671;28;20023;-64
2023/11/24 19:48:29;;;;;;;10.45;7.07;;;;;;;;;;10249633;28;20379;-62
2023/11/24 19:53:30;;;;;;;9.15;6.50;;;;;;;;;;10249263;28;20074;-63
2023/11/24 19:58:30;;;;;;;10.02;6.50;;;;;;;;;;10248961;29;20388;-63
2023/11/24 20:03:31;;;;;;;11.52;7.03;;;;;;;;;;10249166;29;20070;-63
2023/11/24 20:08:32;;;;;;;14.25;7.10;;;;;;;;;;10248658;28;20031;-63
2023/11/24 20:13:33;;;;;;;12.43;6.35;;;;;;;;;;10248702;28;20035;-63
2023/11/24 20:18:33;;;;;;;8.85;6.28;;;;;;;;;;10248703;28;20031;-62
2023/11/24 20:23:34;;;;;;;12.32;7.18;;;;;;;;;;10244343;29;20042;-63
2023/11/24 20:28:34;;;;;;;9.55;6.95;;;;;;;;;;10243065;29;20031;-63
2023/11/24 20:33:35;;;;;;;10.88;7.20;;;;;;;;;;10247612;28;20360;-64
2023/11/24 20:38:35;;;;;;;10.50;7.03;;;;;;;;;;10247746;28;20042;-63
2023/11/24 20:43:36;;;;;;;11.68;7.22;;;;;;;;;;10240626;29;20038;-63
2023/11/24 20:48:40;;;;;;;12.85;7.60;;;;;;;;;;10243155;28;20035;-64
2023/11/24 20:53:41;;;;;;;13.13;6.90;;;;;;;;;;10246911;28;20058;-62
2023/11/24 20:58:42;;;;;;;14.20;6.93;;;;;;;;;;10246174;28;20118;-62
2023/11/24 21:03:42;;;;;;;10.88;7.53;;;;;;;;;;10246544;28;20027;-63
2023/11/24 21:08:43;;;;;;;12.80;7.75;;;;;;;;;;10246384;28;20471;-63
2023/11/24 21:13:44;;;;;;;10.07;7.65;;;;;;;;;;10245886;28;20479;-63
2023/11/24 21:18:44;;;;;;;10.25;7.50;;;;;;;;;;10233861;28;20395;-63
2023/11/24 21:23:45;;;;;;;12.70;8.23;;;;;;;;;;10246338;28;20069;-63
2023/11/24 21:28:46;;;;;;;10.30;8.20;;;;;;;;;;10245163;28;20023;-63
2023/11/24 21:33:48;;;;;;;14.15;8.50;;;;;;;;;;10244276;28;20041;-63
2023/11/24 21:38:49;;;;;;;10.90;7.78;;;;;;;;;;10244477;28;20031;-63
2023/11/24 21:43:49;;;;;;;12.27;7.93;;;;;;;;;;10244266;29;20475;-63
2023/11/24 21:48:50;;;;;;;11.25;7.68;;;;;;;;;;10240610;28;20039;-63
2023/11/24 21:53:51;;;;;;;12.60;8.02;;;;;;;;;;10257991;28;20051;-64
2023/11/24 21:58:55;;;;;;;11.40;8.32;;;;;;;;;;10246197;28;20031;-62
2023/11/24 22:03:56;;;;;;;12.45;8.48;;;;;;;;;;10244065;28;20034;-63
2023/11/24 22:08:57;;;;;;;10.75;7.80;;;;;;;;;;10248431;28;20491;-63
2023/11/24 22:13:57;;;;;;;12.93;7.35;;;;;;;;;;10245162;28;20047;-64
2023/11/24 22:18:58;;;;;;;11.77;7.95;;;;;;;;;;10244325;28;20067;-64
2023/11/24 22:23:59;;;;;;;15.82;7.70;;;;;;;;;;10236362;28;20042;-65
2023/11/24 22:29:03;;;;;;;12.82;7.63;;;;;;;;;;10243726;28;20035;-67
2023/11/24 22:34:03;;;;;;;12.50;8.18;;;;;;;;;;10242164;29;20122;-67
2023/11/24 22:39:04;;;;;;;9.90;6.95;;;;;;;;;;10241380;29;20031;-64
2023/11/24 22:44:08;;;;;;;12.40;7.30;;;;;;;;;;10241724;29;20050;-62
2023/11/24 22:49:08;;;;;;;11.05;7.28;;;;;;;;;;10242361;29;20074;-62
2023/11/24 22:54:09;;;;;;;10.80;7.57;;;;;;;;;;10242150;29;20094;-62
2023/11/24 22:59:10;;;;;;;12.65;7.25;;;;;;;;;;10233712;29;20039;-62
2023/11/24 23:04:11;;;;;;;11.00;7.20;;;;;;;;;;10242598;28;20030;-62
2023/11/24 23:09:12;;;;;;;10.20;7.15;;;;;;;;;;10242736;28;20479;-65
2023/11/24 23:14:13;;;;;;;10.68;7.05;;;;;;;;;;10242198;28;20042;-66
2023/11/24 23:19:15;;;;;;;9.45;6.50;;;;;;;;;;10242376;28;20038;-66
2023/11/24 23:24:15;;;;;;;11.55;6.50;;;;;;;;;;10242484;28;20028;-66
2023/11/24 23:29:16;;;;;;;9.90;6.43;;;;;;;;;;10237979;28;20378;-66
2023/11/24 23:34:16;;;;;;;8.55;6.30;;;;;;;;;;10234632;28;20090;-64
2023/11/24 23:39:18;;;;;;;9.85;6.72;;;;;;;;;;10242128;28;20547;-65
2023/11/24 23:44:19;;;;;;;8.88;6.85;;;;;;;;;;10247838;28;20042;-65
2023/11/24 23:49:19;;;;;;;9.82;6.43;;;;;;;;;;10250012;28;20046;-65
2023/11/24 23:54:20;;;;;;;8.85;6.63;;;;;;;;;;10248050;28;20043;-65
2023/11/24 23:59:21;;;;;;;7.97;5.88;;;;;;;;;;10251962;28;20043;-66
